Current Conditions
Mostly Clear
Conditions



Pressure
1022.92 (hPa) - 30.21 (inHG)
Visibility

10.0 (km) - 6.2 (miles)
Temperature
9  °C
Temperature
8  °C
Dewpoint
94  %
 Humidity
Wind Speed
13  km/h
7  kts
8  mph
3.6  m/s
Wind Direction
N
45°
E
90°
135°
S
180°
225°
W
270°
315°
 270°

Due West
Airport Data
ELLX
Luxembourg-Findel International Airport
Metar :ELLX 210420Z 27007KT 230V310 CAVOK 09/08 Q1023 NOSIG
Sat 21st May 06:20 am
Raw Metar Info
Raw METAR is the most common format in the world for the transmission of observational weather data. It is highly standardized through the International Civil Aviation Organization (ICAO), which allows it to be understood throughout most of the world.
API Info
Data Provided by
https://www.checkwx.com/weather/ELLX

Aviation Weather providing METAR, TAF, AIRMET, SIGMET and OUTLOOK Weather Reports
© Info
CSS/SVG/PHP scripts were developed by weather34.com for use in the weather34 template © 2015-2022

Guide Info provided by Metar-Wikipedia